TimeHAST,TemperatureF,Dew PointF,Humidity,Sea Level PressureIn,VisibilityMPH,Wind Direction,Wind SpeedMPH,Gust SpeedMPH,PrecipitationIn,Events,Conditions,WindDirDegrees,DateUTC
12:01 AM,34.0,30.0,85,29.55,5.0,NW,18.4,29.9,0.00,Snow,Light Snow,320,2013-11-21 10:01:00
1:01 AM,33.1,28.9,85,29.54,4.0,NW,19.6,27.6,0.00,Snow,Light Snow,310,2013-11-21 11:01:00
1:28 AM,33.8,28.4,81,29.53,1.8,NW,17.3,26.5,0.00,Snow,Light Snow,310,2013-11-21 11:28:00
1:38 AM,33.8,28.4,81,29.53,3.0,NW,18.4,26.5,0.00,Snow,Light Snow,310,2013-11-21 11:38:00
2:01 AM,33.1,28.0,82,29.53,10.0,NW,17.3,26.5,0.00,Rain,Light Rain,310,2013-11-21 12:01:00
2:57 AM,33.8,26.6,75,29.52,8.0,NW,15.0,28.8,0.00,Snow,Light Snow,310,2013-11-21 12:57:00
3:01 AM,33.1,27.0,78,29.52,6.0,WNW,15.0,28.8,0.00,Snow,Light Snow,300,2013-11-21 13:01:00
3:20 AM,33.8,26.6,75,29.51,5.0,NW,16.1,28.8,0.00,Snow,Light Snow,310,2013-11-21 13:20:00
3:45 AM,32.0,26.6,80,29.50,2.0,NW,15.0,26.5,0.00,Snow,Light Snow,310,2013-11-21 13:45:00
3:59 AM,32.0,28.4,87,29.49,1.5,WNW,17.3,29.9,0.00,Snow,Light Snow,300,2013-11-21 13:59:00
4:01 AM,32.0,28.0,85,29.49,1.5,NW,20.7,29.9,0.00,Snow,Light Snow,310,2013-11-21 14:01:00
4:28 AM,32.0,28.4,87,29.48,2.0,WNW,16.1,25.3,0.00,Snow,Light Snow,300,2013-11-21 14:28:00
5:01 AM,33.8,26.6,75,29.47,4.0,NW,17.3,27.6,0.00,Snow,Light Snow,310,2013-11-21 15:01:00
5:08 AM,33.1,27.0,78,29.47,4.0,WNW,17.3,24.2,0.00,Snow,Light Snow,300,2013-11-21 15:08:00
5:31 AM,33.8,28.4,81,29.46,5.0,WNW,12.7,24.2,0.00,Snow,Light Snow,300,2013-11-21 15:31:00
5:57 AM,33.8,28.4,81,29.46,2.0,WNW,18.4,26.5,0.00,Snow,Light Snow,300,2013-11-21 15:57:00
6:01 AM,32.0,27.0,82,29.46,2.0,WNW,15.0,25.3,0.00,Snow,Light Snow,290,2013-11-21 16:01:00
6:46 AM,32.0,26.6,80,29.45,3.0,WNW,16.1,24.2,0.00,Snow,Light Snow,300,2013-11-21 16:46:00
6:54 AM,32.0,26.6,80,29.45,2.0,WNW,17.3,24.2,0.00,Snow,Light Snow,300,2013-11-21 16:54:00
7:01 AM,32.0,26.6,80,29.45,4.0,NW,21.9,31.1,0.00,Snow,Light Snow,310,2013-11-21 17:01:00
7:41 AM,30.2,26.6,86,29.45,6.0,West,19.6,33.4,0.00,Snow,Light Snow,280,2013-11-21 17:41:00
7:49 AM,30.2,26.6,86,29.45,1.8,West,19.6,28.8,0.00,Snow,Light Snow,280,2013-11-21 17:49:00
8:01 AM,30.9,27.0,85,29.74,1.5,West,21.9,34.5,0.00,Snow,Light Snow,280,2013-11-21 18:01:00
8:11 AM,30.2,26.6,86,29.45,1.8,West,25.3,46.0,0.00,Snow,Light Snow,280,2013-11-21 18:11:00
8:20 AM,30.2,26.6,86,29.45,3.0,WNW,20.7,35.7,0.00,Snow,Light Snow,290,2013-11-21 18:20:00
8:29 AM,30.2,26.6,86,29.45,2.0,WNW,24.2,43.7,0.00,Snow,Light Snow,290,2013-11-21 18:29:00
8:53 AM,30.2,24.8,80,29.46,4.0,WNW,23.0,36.8,0.00,Snow,Light Snow,290,2013-11-21 18:53:00
9:01 AM,30.9,24.1,76,29.74,7.0,WNW,24.2,36.8,0.00,Snow,Light Snow,290,2013-11-21 19:01:00
9:26 AM,30.2,24.8,80,29.46,7.0,West,17.3,32.2,0.00,Snow,Light Snow,280,2013-11-21 19:26:00
10:01 AM,30.2,24.8,80,29.46,2.5,WNW,18.4,31.1,0.00,Snow,Light Snow,290,2013-11-21 20:01:00
10:12 AM,30.2,23.0,75,29.46,3.0,WNW,20.7,33.4,0.00,Snow,Light Snow,290,2013-11-21 20:12:00
10:19 AM,30.2,23.0,75,29.45,2.5,WNW,19.6,33.4,0.00,Snow,Light Snow,300,2013-11-21 20:19:00
10:27 AM,30.2,23.0,75,29.45,3.0,WNW,23.0,34.5,0.00,Snow,Light Snow,300,2013-11-21 20:27:00
11:01 AM,30.0,21.9,72,29.73,3.0,West,21.9,33.4,0.00,Snow,Light Snow,280,2013-11-21 21:01:00
11:33 AM,28.4,21.2,74,29.45,1.8,West,26.5,42.6,0.00,Snow,Light Snow,280,2013-11-21 21:33:00
11:44 AM,28.4,21.2,74,29.45,2.5,WNW,28.8,40.3,0.00,Snow,Light Snow,290,2013-11-21 21:44:00
11:52 AM,28.4,19.4,69,29.45,1.5,West,26.5,42.6,0.00,Snow,Light Snow,280,2013-11-21 21:52:00
12:01 PM,28.4,19.4,69,29.45,2.0,West,27.6,43.7,0.00,Snow,Light Snow,280,2013-11-21 22:01:00
12:11 PM,28.4,17.6,64,29.45,2.5,West,25.3,38.0,0.00,Snow,Light Snow,280,2013-11-21 22:11:00
12:18 PM,28.4,17.6,64,29.45,3.0,West,24.2,39.1,0.00,Snow,Light Snow,280,2013-11-21 22:18:00
12:27 PM,26.6,19.4,74,29.44,1.8,WNW,25.3,38.0,0.00,Snow,Light Snow,290,2013-11-21 22:27:00
12:44 PM,26.6,19.4,74,29.44,3.0,West,24.2,40.3,0.00,Snow,Light Snow,280,2013-11-21 22:44:00
12:56 PM,26.6,19.4,74,29.45,2.5,West,16.1,41.4,0.00,Snow,Light Snow,270,2013-11-21 22:56:00
1:01 PM,26.6,17.6,69,29.44,2.5,WNW,23.0,32.2,0.00,Snow,Light Snow,300,2013-11-21 23:01:00
1:09 PM,26.6,19.4,74,29.45,0.5,West,20.7,32.2,0.00,Snow,Snow,280,2013-11-21 23:09:00
1:19 PM,26.6,17.6,69,29.45,1.2,West,20.7,39.1,0.00,Snow,Light Snow,270,2013-11-21 23:19:00
1:28 PM,26.6,17.6,69,29.45,4.0,West,23.0,39.1,0.00,Snow,Light Snow,280,2013-11-21 23:28:00
1:36 PM,26.6,19.4,74,29.45,1.0,WNW,25.3,40.3,0.00,Snow,Light Snow,290,2013-11-21 23:36:00
1:43 PM,26.6,17.6,69,29.45,1.8,West,21.9,40.3,0.00,Snow,Light Snow,280,2013-11-21 23:43:00
1:50 PM,26.6,17.6,69,29.45,4.0,WNW,19.6,42.6,0.00,Snow,Light Snow,290,2013-11-21 23:50:00
2:01 PM,26.6,19.4,74,29.45,2.0,West,21.9,31.1,0.00,Snow,Light Snow,280,2013-11-22 00:01:00
2:09 PM,26.6,19.4,74,29.45,1.5,West,23.0,32.2,0.00,Snow,Light Snow,280,2013-11-22 00:09:00
2:17 PM,26.6,19.4,74,29.46,0.8,West,20.7,41.4,0.00,Snow,Light Snow,270,2013-11-22 00:17:00
2:25 PM,26.6,19.4,74,29.45,0.8,West,19.6,32.2,0.00,Snow,Light Snow,270,2013-11-22 00:25:00
2:32 PM,26.6,19.4,74,29.45,1.5,West,20.7,35.7,0.00,Snow,Light Snow,280,2013-11-22 00:32:00
2:44 PM,26.6,19.4,74,29.45,1.0,West,17.3,41.4,0.00,Snow,Light Snow,280,2013-11-22 00:44:00
2:53 PM,26.6,19.4,74,29.45,1.0,West,23.0,33.4,0.00,Snow,Light Snow,270,2013-11-22 00:53:00
3:01 PM,26.6,19.4,74,29.45,0.8,WNW,27.6,40.3,0.00,Snow,Light Snow,300,2013-11-22 01:01:00
3:11 PM,26.1,19.9,78,29.73,0.8,West,18.4,40.3,0.00,Snow,Light Snow,270,2013-11-22 01:11:00
3:14 PM,26.6,19.4,74,29.45,1.0,West,16.1,32.2,0.00,Snow,Light Snow,270,2013-11-22 01:14:00
3:22 PM,26.6,19.4,74,29.45,1.8,West,23.0,41.4,0.00,Snow,Light Snow,280,2013-11-22 01:22:00
3:33 PM,26.6,19.4,74,29.45,4.0,WNW,23.0,35.7,0.00,Snow,Light Snow,290,2013-11-22 01:33:00
3:47 PM,26.6,19.4,74,29.45,1.5,WNW,26.5,39.1,0.00,Snow,Light Snow,290,2013-11-22 01:47:00
4:01 PM,26.6,19.4,74,29.45,4.0,WNW,21.9,33.4,0.00,Snow,Light Snow,300,2013-11-22 02:01:00
4:08 PM,26.6,17.6,69,29.46,6.0,WNW,26.5,41.4,0.00,Snow,Light Snow,290,2013-11-22 02:08:00
4:19 PM,26.6,19.4,74,29.46,1.0,WNW,20.7,35.7,0.00,Snow,Light Snow,290,2013-11-22 02:19:00
4:37 PM,26.6,19.4,74,29.46,2.0,West,25.3,43.7,0.00,Snow,Light Snow,280,2013-11-22 02:37:00
4:54 PM,26.6,19.4,74,29.45,0.8,WNW,25.3,42.6,0.00,Snow,Light Snow,300,2013-11-22 02:54:00
5:01 PM,26.6,17.6,69,29.46,1.8,WNW,20.7,35.7,0.00,Snow,Light Snow,290,2013-11-22 03:01:00
5:08 PM,26.6,17.6,69,29.47,5.0,West,24.2,36.8,0.00,Snow,Light Snow,280,2013-11-22 03:08:00
5:16 PM,26.6,17.6,69,29.46,3.0,West,20.7,34.5,0.00,Snow,Light Snow,280,2013-11-22 03:16:00
5:24 PM,26.6,17.6,69,29.46,9.0,West,15.0,32.2,0.00,Snow,Light Snow,270,2013-11-22 03:24:00
5:32 PM,26.6,19.4,74,29.47,2.0,West,21.9,34.5,0.00,Snow,Light Snow,280,2013-11-22 03:32:00
5:39 PM,26.6,19.4,74,29.47,1.2,WNW,25.3,39.1,0.00,Snow,Light Snow,290,2013-11-22 03:39:00
5:58 PM,26.6,19.4,74,29.47,1.8,West,18.4,34.5,0.00,Snow,Light Snow,280,2013-11-22 03:58:00
6:01 PM,26.6,19.4,74,29.47,2.5,WNW,18.4,34.5,0.00,Snow,Light Snow,290,2013-11-22 04:01:00
6:08 PM,26.6,19.4,74,29.47,6.0,West,25.3,38.0,0.00,Snow,Light Snow,270,2013-11-22 04:08:00
6:22 PM,26.1,19.0,75,29.76,3.0,WNW,21.9,31.1,0.00,Snow,Light Snow,290,2013-11-22 04:22:00
7:01 PM,27.0,17.1,66,29.78,9.0,NW,17.3,29.9,0.00,Snow,Light Snow,310,2013-11-22 05:01:00
7:16 PM,26.6,17.6,69,29.49,10.0,WNW,19.6,33.4,0.00,,Overcast,290,2013-11-22 05:16:00
8:01 PM,27.0,17.1,66,29.79,8.0,WNW,13.8,27.6,0.00,Snow,Light Snow,290,2013-11-22 06:01:00
8:17 PM,26.6,17.6,69,29.51,2.5,WNW,15.0,23.0,0.00,Snow,Light Snow,290,2013-11-22 06:17:00
8:24 PM,26.6,19.4,74,29.51,1.2,West,18.4,27.6,0.00,Snow,Light Snow,270,2013-11-22 06:24:00
8:28 PM,26.6,19.4,74,29.51,2.0,WSW,11.5,27.6,0.00,Snow,Light Snow,250,2013-11-22 06:28:00
8:36 PM,26.6,17.6,69,29.51,7.0,West,16.1,21.9,0.00,Snow,Light Snow,260,2013-11-22 06:36:00
9:01 PM,26.6,15.8,64,29.50,8.0,WSW,12.7,28.8,0.00,,Overcast,250,2013-11-22 07:01:00
10:01 PM,27.0,15.1,61,29.79,10.0,WSW,8.1,-,0.00,,Overcast,250,2013-11-22 08:01:00
11:01 PM,27.0,19.0,72,29.80,5.0,SW,11.5,-,0.00,Snow,Light Snow,230,2013-11-22 09:01:00
11:17 PM,26.6,19.4,74,29.51,2.0,SW,9.2,16.1,0.00,Snow,Light Snow,230,2013-11-22 09:17:00
11:24 PM,26.6,19.4,74,29.51,2.5,SSW,9.2,20.7,0.00,Snow,Light Snow,200,2013-11-22 09:24:00
11:29 PM,26.6,19.4,74,29.51,4.0,SW,9.2,20.7,0.00,Snow,Light Snow,230,2013-11-22 09:29:00
11:41 PM,26.6,19.4,74,29.51,9.0,WSW,9.2,16.1,0.00,Snow,Light Snow,240,2013-11-22 09:41:00